Time;durP1;ratioP1;P1;durP2;ratioP2;P2;SDS_P1;SDS_P2;PMS_P1;PMS_P2;Temp;Humidity;BMP_temperature;BMP_pressure;BME280_temperature;BME280_humidity;BME280_pressure;Samples;Min_cycle;Max_cycle;Signal;HPM_P1;HPM_P2
2023/12/18 00:00:14;;;;;;;;;30.00;26.00;;;;;4.86;86.40;103301.69;4997070;28;46131;-49
2023/12/18 00:02:40;;;;;;;;;37.50;27.50;;;;;4.90;86.71;103312.09;4996931;28;45264;-53
2023/12/18 00:05:07;;;;;;;;;24.50;16.75;;;;;4.92;87.06;103315.53;4998250;28;45370;-55
2023/12/18 00:07:32;;;;;;;;;41.25;27.25;;;;;4.95;86.63;103315.44;4998368;28;45551;-51
2023/12/18 00:09:58;;;;;;;;;35.75;26.75;;;;;4.97;86.93;103308.38;4997964;28;46326;-55
2023/12/18 00:12:23;;;;;;;;;37.00;24.50;;;;;4.95;86.42;103302.25;4997916;28;45482;-50
2023/12/18 00:14:48;;;;;;;;;33.75;27.75;;;;;4.96;86.60;103303.13;4996836;28;45778;-55
2023/12/18 00:17:13;;;;;;;;;37.75;25.00;;;;;4.94;86.40;103303.19;4998517;28;45266;-56
2023/12/18 00:19:39;;;;;;;;;32.75;26.50;;;;;4.96;86.55;103297.84;4997850;28;47148;-53
2023/12/18 00:22:04;;;;;;;;;34.00;27.25;;;;;4.90;87.22;103292.78;4997755;28;45397;-57
2023/12/18 00:24:29;;;;;;;;;29.00;19.25;;;;;4.93;86.21;103301.47;4998117;28;45433;-57
2023/12/18 00:26:55;;;;;;;;;34.50;25.50;;;;;4.96;86.41;103297.84;4998468;28;45467;-56
2023/12/18 00:29:20;;;;;;;;;31.00;21.25;;;;;4.94;86.06;103291.78;4997568;28;46241;-55
2023/12/18 00:31:47;;;;;;;;;30.25;24.25;;;;;4.90;86.18;103291.00;4997788;28;45368;-49
2023/12/18 00:34:13;;;;;;;;;27.75;22.75;;;;;4.89;86.37;103288.41;4997723;28;45739;-49
2023/12/18 00:36:38;;;;;;;;;28.50;21.50;;;;;4.82;86.01;103285.09;4997897;28;45294;-52
2023/12/18 00:39:05;;;;;;;;;24.50;17.00;;;;;4.80;86.56;103291.31;4996186;28;49147;-50
2023/12/18 00:41:31;;;;;;;;;28.00;18.75;;;;;4.82;86.60;103286.88;4997615;28;45462;-49
2023/12/18 00:43:56;;;;;;;;;28.25;21.75;;;;;4.81;86.59;103283.38;4997813;28;45363;-49
2023/12/18 00:46:21;;;;;;;;;27.00;19.75;;;;;4.78;86.26;103285.25;4997779;28;45546;-57
2023/12/18 00:48:47;;;;;;;;;27.75;21.75;;;;;4.77;86.58;103276.47;4997438;28;46042;-51
2023/12/18 00:51:12;;;;;;;;;28.25;21.00;;;;;4.80;87.11;103283.41;4997590;28;45776;-55
2023/12/18 00:53:37;;;;;;;;;26.75;21.25;;;;;4.75;86.48;103283.53;4997495;28;45456;-52
2023/12/18 00:56:03;;;;;;;;;30.50;21.50;;;;;4.78;87.45;103287.88;4997579;28;45441;-55
2023/12/18 00:58:28;;;;;;;;;33.00;21.50;;;;;4.78;86.72;103278.19;4997187;28;45419;-52
2023/12/18 01:00:54;;;;;;;;;36.50;25.50;;;;;4.82;86.63;103268.41;4997440;28;45440;-55
2023/12/18 01:03:19;;;;;;;;;30.25;24.00;;;;;4.86;86.32;103267.41;4996150;28;45413;-51
2023/12/18 01:05:44;;;;;;;;;35.75;24.50;;;;;4.83;87.00;103257.81;4997656;28;45373;-55
2023/12/18 01:08:10;;;;;;;;;25.00;21.00;;;;;4.78;87.23;103248.31;4996934;28;51938;-55
2023/12/18 01:10:35;;;;;;;;;31.50;27.75;;;;;4.91;86.62;103254.94;4996963;28;45471;-53
2023/12/18 01:13:00;;;;;;;;;32.50;25.25;;;;;4.88;86.75;103255.00;4996959;28;45421;-55
2023/12/18 01:15:26;;;;;;;;;24.75;16.50;;;;;4.89;86.53;103254.13;4997524;28;45430;-49
2023/12/18 01:17:51;;;;;;;;;35.50;24.50;;;;;4.88;86.30;103250.59;4997012;28;46101;-52
2023/12/18 01:20:16;;;;;;;;;29.75;19.00;;;;;4.88;86.54;103249.75;4997108;28;45457;-51
2023/12/18 01:22:41;;;;;;;;;28.00;26.50;;;;;4.89;86.55;103244.44;4997515;28;45470;-51
2023/12/18 01:25:07;;;;;;;;;37.25;24.00;;;;;4.90;86.72;103238.25;4997186;28;45597;-56
2023/12/18 01:27:33;;;;;;;;;27.25;22.75;;;;;4.90;86.73;103245.28;4997040;28;45223;-55
2023/12/18 01:29:58;;;;;;;;;28.25;23.50;;;;;4.92;86.55;103249.59;4996514;28;45524;-53
2023/12/18 01:32:23;;;;;;;;;27.75;17.75;;;;;4.91;86.25;103249.66;4997015;28;45260;-50
2023/12/18 01:34:49;;;;;;;;;30.75;25.50;;;;;4.81;86.35;103238.53;4996977;28;45200;-53
2023/12/18 01:37:14;;;;;;;;;28.75;24.00;;;;;4.83;86.44;103252.53;4996948;28;46128;-52
2023/12/18 01:39:39;;;;;;;;;33.00;22.75;;;;;4.80;86.34;103244.69;4996936;28;45376;-54
2023/12/18 01:42:05;;;;;;;;;35.75;27.50;;;;;4.79;86.49;103242.97;4996770;28;45391;-54
2023/12/18 01:44:30;;;;;;;;;35.75;22.25;;;;;4.79;87.07;103252.69;4996827;28;45379;-54
2023/12/18 01:46:57;;;;;;;;;27.25;22.25;;;;;4.80;86.48;103259.66;4996704;28;46855;-56
2023/12/18 01:49:23;;;;;;;;;24.75;21.75;;;;;4.80;87.06;103260.53;4996629;28;45428;-55
2023/12/18 01:51:48;;;;;;;;;24.75;21.00;;;;;4.82;86.80;103261.34;4996693;28;45505;-56
2023/12/18 01:54:14;;;;;;;;;26.75;19.75;;;;;4.85;86.12;103260.41;4997067;28;45423;-56
2023/12/18 01:56:40;;;;;;;;;32.00;24.00;;;;;4.85;86.10;103256.00;4996438;28;46290;-51
2023/12/18 01:59:09;;;;;;;;;31.75;24.00;;;;;4.86;86.08;103251.59;4996575;28;45400;-49
2023/12/18 02:01:35;;;;;;;;;29.75;21.25;;;;;4.85;86.04;103242.81;4996675;28;45378;-49
2023/12/18 02:04:01;;;;;;;;;32.50;21.00;;;;;4.90;86.30;103248.78;4996643;28;45326;-50
2023/12/18 02:06:27;;;;;;;;;31.75;21.50;;;;;4.91;86.43;103244.38;4996134;28;46784;-50
2023/12/18 02:08:52;;;;;;;;;27.00;24.75;;;;;4.87;85.11;103245.38;4996565;28;45429;-50
2023/12/18 02:11:17;;;;;;;;;34.50;25.00;;;;;4.87;85.92;103248.88;4996436;28;45344;-47
2023/12/18 02:13:43;;;;;;;;;32.25;23.50;;;;;4.88;84.95;103247.97;4996623;28;45374;-54
2023/12/18 02:16:10;;;;;;;;;26.75;19.75;;;;;4.88;85.49;103255.88;4996182;28;47089;-54
2023/12/18 02:18:41;;;;;;;;;30.50;26.75;;;;;4.90;84.81;103258.50;4996337;28;45255;-51
2023/12/18 02:21:07;;;;;;;;;27.00;20.00;;;;;4.88;84.75;103253.25;4996713;28;45391;-53
2023/12/18 02:23:32;;;;;;;;;21.75;19.75;;;;;4.85;84.42;103261.28;4997377;28;45421;-56
2023/12/18 02:25:57;;;;;;;;;26.50;16.50;;;;;4.84;84.33;103256.03;4999624;28;45490;-51
2023/12/18 02:28:24;;;;;;;;;32.00;21.50;;;;;4.82;83.97;103263.13;4999569;28;45504;-51
2023/12/18 02:30:50;;;;;;;;;17.00;17.00;;;;;4.81;83.50;103253.50;4999779;28;45465;-52
2023/12/18 02:33:15;;;;;;;;;23.00;17.75;;;;;4.66;84.00;103231.97;4999844;28;45322;-53
2023/12/18 02:35:40;;;;;;;;;30.50;22.00;;;;;4.76;83.75;103256.25;4999301;28;45469;-52
2023/12/18 02:38:06;;;;;;;;;17.25;16.25;;;;;4.73;83.58;103251.09;4999302;28;45452;-54
2023/12/18 02:40:31;;;;;;;;;25.50;18.00;;;;;4.72;83.64;103258.16;4999614;28;45339;-50
2023/12/18 02:42:56;;;;;;;;;14.75;8.00;;;;;4.70;84.04;103254.69;4999753;28;45366;-51
2023/12/18 02:45:22;;;;;;;;;23.25;16.00;;;;;4.69;84.05;103250.31;4999060;28;45392;-55
2023/12/18 02:47:47;;;;;;;;;18.25;18.00;;;;;4.63;84.17;103247.88;4999415;28;45231;-57
2023/12/18 02:50:13;;;;;;;;;23.00;15.75;;;;;4.65;84.09;103248.69;4999380;28;45326;-52
2023/12/18 02:52:39;;;;;;;;;27.25;19.50;;;;;4.65;83.98;103242.56;4999637;28;45776;-53
2023/12/18 02:55:04;;;;;;;;;27.75;19.75;;;;;4.55;84.14;103236.72;4999118;28;51741;-53
2023/12/18 02:57:30;;;;;;;;;25.25;20.00;;;;;4.59;84.01;103248.88;4999210;28;45855;-52
2023/12/18 02:59:55;;;;;;;;;24.00;20.75;;;;;4.58;84.09;103247.16;4999253;28;45358;-51
2023/12/18 03:02:21;;;;;;;;;29.75;20.00;;;;;4.60;84.18;103244.47;4999628;28;45322;-51
2023/12/18 03:04:47;;;;;;;;;19.75;16.75;;;;;4.52;84.10;103247.34;4999361;28;46443;-50
2023/12/18 03:07:12;;;;;;;;;29.25;17.00;;;;;4.50;83.54;103244.72;4999176;28;45281;-52
2023/12/18 03:09:37;;;;;;;;;25.50;17.75;;;;;4.49;84.03;103234.25;4999444;28;45556;-52
2023/12/18 03:12:03;;;;;;;;;28.00;22.00;;;;;4.50;84.19;103242.09;4999224;28;45406;-55
2023/12/18 03:14:29;;;;;;;;;23.75;22.50;;;;;4.48;84.76;103240.44;4998796;28;47238;-55
2023/12/18 03:16:54;;;;;;;;;19.50;15.00;;;;;4.49;84.87;103245.66;4998897;28;45380;-54
2023/12/18 03:19:20;;;;;;;;;23.00;19.00;;;;;4.45;84.06;103240.53;4999095;28;45456;-50
2023/12/18 03:21:45;;;;;;;;;23.25;16.00;;;;;4.43;85.37;103243.22;4999136;28;45270;-54
2023/12/18 03:24:11;;;;;;;;;26.75;18.00;;;;;4.47;84.93;103244.00;4998712;28;45429;-52
2023/12/18 03:26:36;;;;;;;;;32.50;18.50;;;;;4.40;85.29;103232.75;4998659;28;45336;-51
2023/12/18 03:29:02;;;;;;;;;21.00;18.00;;;;;4.48;85.09;103245.72;4997325;28;45390;-53
2023/12/18 03:31:27;;;;;;;;;22.50;15.25;;;;;4.57;84.49;103255.97;4998871;28;45576;-50
2023/12/18 03:33:52;;;;;;;;;27.25;19.00;;;;;4.60;83.99;103250.63;4998128;28;46176;-52
2023/12/18 03:36:18;;;;;;;;;22.50;18.00;;;;;4.63;84.08;103239.94;4998512;28;45283;-52
2023/12/18 03:38:43;;;;;;;;;21.00;14.00;;;;;4.68;84.20;103239.84;4998761;28;45322;-52
2023/12/18 03:41:09;;;;;;;;;27.25;21.75;;;;;4.69;83.41;103233.66;4997427;28;45384;-55
2023/12/18 03:43:34;;;;;;;;;19.75;17.00;;;;;4.70;82.97;103236.22;4998306;28;46283;-57
2023/12/18 03:46:00;;;;;;;;;22.75;20.00;;;;;4.70;82.92;103236.22;4998024;28;50026;-52
2023/12/18 03:48:25;;;;;;;;;22.50;16.50;;;;;4.71;83.44;103237.09;4998554;28;45403;-52
2023/12/18 03:50:50;;;;;;;;;22.75;18.75;;;;;4.69;83.15;103234.50;4998631;28;45393;-53
2023/12/18 03:53:15;;;;;;;;;22.00;17.00;;;;;4.66;83.25;103237.22;4998427;28;46216;-53
2023/12/18 03:55:41;;;;;;;;;24.00;15.25;;;;;4.55;83.87;103234.09;4998477;28;45354;-48
2023/12/18 03:58:06;;;;;;;;;20.25;19.00;;;;;4.48;83.68;103245.72;4998396;28;45434;-55
2023/12/18 04:00:32;;;;;;;;;23.25;17.50;;;;;4.49;84.54;103239.53;4998312;28;45362;-53
2023/12/18 04:02:57;;;;;;;;;33.75;22.25;;;;;4.57;84.67;103245.44;4998519;28;46097;-53
2023/12/18 04:05:24;;;;;;;;;19.50;14.75;;;;;4.62;83.64;103247.91;4998190;28;45374;-56
2023/12/18 04:07:49;;;;;;;;;26.75;16.75;;;;;4.59;83.70;103240.09;4998176;28;45362;-55
2023/12/18 04:10:15;;;;;;;;;24.00;18.00;;;;;4.66;83.50;103247.78;4998467;28;45385;-57
2023/12/18 04:12:40;;;;;;;;;20.50;14.00;;;;;4.66;83.41;103244.28;4998079;28;46107;-57
2023/12/18 04:15:06;;;;;;;;;23.00;16.50;;;;;4.68;82.80;103248.59;4997754;28;45490;-56
2023/12/18 04:17:31;;;;;;;;;26.00;20.50;;;;;4.67;83.16;103246.84;4998151;28;45412;-57
2023/12/18 04:19:57;;;;;;;;;14.25;12.25;;;;;4.66;82.59;103241.66;4998143;28;45466;-56
2023/12/18 04:22:23;;;;;;;;;26.25;18.50;;;;;4.67;82.44;103244.22;4997522;28;49922;-56
2023/12/18 04:24:48;;;;;;;;;18.25;12.00;;;;;4.67;82.52;103248.63;4998071;28;45407;-49
2023/12/18 04:27:13;;;;;;;;;25.00;18.25;;;;;4.66;83.12;103247.78;4998107;28;45326;-56
2023/12/18 04:29:38;;;;;;;;;22.75;17.00;;;;;4.66;82.28;103247.78;4997934;28;45381;-56
2023/12/18 04:32:05;;;;;;;;;20.00;15.50;;;;;4.66;82.00;103247.78;4997656;28;46148;-56
2023/12/18 04:34:30;;;;;;;;;15.00;14.00;;;;;4.64;81.79;103246.13;4997564;28;45318;-54
2023/12/18 04:36:56;;;;;;;;;21.25;18.75;;;;;4.65;82.40;103243.41;4997702;28;45284;-48
2023/12/18 04:39:21;;;;;;;;;21.50;17.50;;;;;4.66;82.57;103250.41;4997995;28;45375;-58
2023/12/18 04:41:47;;;;;;;;;25.50;15.25;;;;;4.65;82.00;103239.94;4997613;28;46206;-50
2023/12/18 04:44:12;;;;;;;;;23.00;17.00;;;;;4.69;81.77;103258.25;4997609;28;45386;-57
2023/12/18 04:46:38;;;;;;;;;19.25;15.00;;;;;4.67;81.86;103241.59;4996804;28;45363;-54
2023/12/18 04:49:03;;;;;;;;;18.00;12.25;;;;;4.66;81.86;103245.13;4997693;28;45524;-56
2023/12/18 04:51:29;;;;;;;;;15.50;11.50;;;;;4.66;82.47;103237.22;4997321;28;46134;-52
2023/12/18 04:53:55;;;;;;;;;24.50;14.75;;;;;4.68;82.35;103234.56;4997314;28;45372;-56
2023/12/18 04:56:20;;;;;;;;;21.75;18.00;;;;;4.62;81.51;103237.38;4997493;28;45339;-55
2023/12/18 04:58:46;;;;;;;;;29.75;22.75;;;;;4.65;81.93;103239.94;4997634;28;45347;-54
2023/12/18 05:01:11;;;;;;;;;22.25;14.75;;;;;4.65;81.70;103240.78;4997022;28;45437;-49
2023/12/18 05:03:36;;;;;;;;;18.50;14.25;;;;;4.67;82.17;103238.94;4997666;28;45493;-49
2023/12/18 05:06:02;;;;;;;;;26.75;16.00;;;;;4.65;82.15;103235.50;4997772;28;45517;-47
2023/12/18 05:08:28;;;;;;;;;35.75;22.00;;;;;4.65;81.67;103237.28;4997556;28;45363;-53
2023/12/18 05:10:54;;;;;;;;;22.25;15.75;;;;;4.64;81.97;103239.06;4997044;28;47243;-55
2023/12/18 05:13:19;;;;;;;;;24.25;13.50;;;;;4.63;81.82;103237.31;4997049;28;45486;-53
2023/12/18 05:15:45;;;;;;;;;20.75;18.50;;;;;4.56;81.54;103230.53;4997190;28;45338;-54
2023/12/18 05:18:11;;;;;;;;;21.50;15.75;;;;;4.57;81.53;103231.38;4997553;28;45255;-50
2023/12/18 05:20:36;;;;;;;;;14.00;14.00;;;;;4.41;81.49;103204.63;4996955;28;46273;-55
2023/12/18 05:23:01;;;;;;;;;19.50;13.75;;;;;4.57;81.44;103229.59;4997048;28;45390;-55
2023/12/18 05:25:27;;;;;;;;;17.75;15.25;;;;;4.54;81.01;103228.84;4997198;28;45431;-54
2023/12/18 05:27:52;;;;;;;;;20.25;15.25;;;;;4.57;81.48;103229.59;4997300;28;45408;-55
2023/12/18 05:30:17;;;;;;;;;17.75;15.00;;;;;4.49;81.19;103227.19;4996652;28;46945;-50
2023/12/18 05:32:42;;;;;;;;;27.25;17.00;;;;;4.46;81.23;103222.00;4997056;28;45689;-57
2023/12/18 05:35:08;;;;;;;;;20.75;14.75;;;;;4.49;81.38;103236.88;4996754;28;45447;-57
2023/12/18 05:37:33;;;;;;;;;15.25;13.25;;;;;4.45;81.20;103233.47;4997084;28;45373;-55
2023/12/18 05:39:59;;;;;;;;;14.75;12.25;;;;;4.48;81.90;103236.03;4996626;28;45425;-56
2023/12/18 05:42:24;;;;;;;;;17.50;14.50;;;;;4.50;82.10;103246.50;4996772;28;45421;-57
2023/12/18 05:44:49;;;;;;;;;13.75;13.00;;;;;4.50;81.21;103238.59;4996814;28;45354;-55
2023/12/18 05:47:14;;;;;;;;;17.50;16.25;;;;;4.48;81.14;103243.06;4996639;28;45431;-52
2023/12/18 05:49:40;;;;;;;;;19.50;16.50;;;;;4.48;81.90;103249.19;4996502;28;46236;-56
2023/12/18 05:52:05;;;;;;;;;23.25;12.00;;;;;4.48;82.11;103240.44;4996564;28;45456;-49
2023/12/18 05:54:31;;;;;;;;;22.75;15.00;;;;;4.47;81.73;103242.22;4996514;28;45460;-50
2023/12/18 05:56:56;;;;;;;;;20.75;14.00;;;;;4.50;80.92;103238.59;4997423;28;45386;-50
2023/12/18 05:59:22;;;;;;;;;21.00;13.75;;;;;4.46;80.87;103231.69;4995607;28;46322;-55
2023/12/18 06:01:47;;;;;;;;;20.50;20.50;;;;;4.47;81.41;103226.41;4996337;28;45378;-55
2023/12/18 06:04:12;;;;;;;;;24.00;15.50;;;;;4.47;80.82;103221.13;4996738;28;45346;-55
2023/12/18 06:06:38;;;;;;;;;16.25;14.00;;;;;4.48;80.83;103225.47;4996943;28;45374;-55
2023/12/18 06:09:03;;;;;;;;;18.50;16.50;;;;;4.47;81.21;103226.41;4996568;28;45383;-55
2023/12/18 06:11:29;;;;;;;;;18.75;16.25;;;;;4.45;80.76;103222.94;4996249;28;45402;-55
2023/12/18 06:13:54;;;;;;;;;14.25;11.00;;;;;4.44;81.40;103223.84;4996643;28;45322;-55
2023/12/18 06:16:20;;;;;;;;;22.50;15.00;;;;;4.47;80.61;103234.31;4996360;28;45368;-55
2023/12/18 06:18:45;;;;;;;;;18.00;15.00;;;;;4.47;81.12;103238.72;4996293;28;45334;-55
2023/12/18 06:21:10;;;;;;;;;23.25;18.25;;;;;4.41;80.52;103229.19;4996559;28;45409;-55
2023/12/18 06:23:36;;;;;;;;;20.75;16.75;;;;;4.36;80.61;103235.53;4996330;28;45663;-53
2023/12/18 06:26:03;;;;;;;;;20.00;17.25;;;;;4.32;81.32;103240.03;4996494;28;45319;-56
2023/12/18 06:28:29;;;;;;;;;20.25;13.25;;;;;4.31;81.01;103238.31;4996012;28;46040;-56
2023/12/18 06:30:54;;;;;;;;;26.50;17.25;;;;;4.30;81.52;103243.59;4995824;28;45501;-55
2023/12/18 06:33:19;;;;;;;;;20.00;13.75;;;;;4.31;81.36;103248.84;4995037;28;45683;-55
2023/12/18 06:35:45;;;;;;;;;19.75;16.75;;;;;4.27;80.35;103241.06;4996187;28;45416;-53
2023/12/18 06:38:10;;;;;;;;;18.00;12.00;;;;;4.26;80.43;103250.75;4996600;28;46813;-53
2023/12/18 06:40:35;;;;;;;;;17.75;13.00;;;;;4.26;79.84;103253.38;4996541;28;45302;-54
2023/12/18 06:43:01;;;;;;;;;15.25;12.25;;;;;4.20;80.83;103256.19;4996637;28;45401;-53
2023/12/18 06:45:26;;;;;;;;;17.00;12.50;;;;;4.18;80.75;103244.84;4996424;28;45555;-54
2023/12/18 06:47:51;;;;;;;;;18.75;13.75;;;;;4.12;80.07;103243.22;4995600;28;46178;-54
2023/12/18 06:50:17;;;;;;;;;13.00;13.00;;;;;4.14;80.09;103262.50;4996153;28;45537;-55
2023/12/18 06:52:43;;;;;;;;;22.75;14.00;;;;;4.02;80.07;103244.41;4996209;28;45391;-55
2023/12/18 06:55:09;;;;;;;;;19.75;15.25;;;;;4.06;80.71;103253.94;4996340;28;45517;-55
2023/12/18 06:57:34;;;;;;;;;24.50;16.75;;;;;4.06;79.73;103261.84;4995390;28;46601;-56
2023/12/18 07:00:00;;;;;;;;;22.00;14.75;;;;;4.01;79.81;103255.84;4995808;28;45395;-55
2023/12/18 07:02:26;;;;;;;;;19.75;14.75;;;;;4.00;80.31;103264.63;4995698;28;45347;-54
2023/12/18 07:04:52;;;;;;;;;18.00;16.50;;;;;3.89;80.24;103237.75;4995761;28;45320;-55
2023/12/18 07:07:18;;;;;;;;;20.75;13.00;;;;;3.94;80.55;103247.25;4995567;28;46314;-55
2023/12/18 07:09:43;;;;;;;;;19.75;15.25;;;;;3.86;80.08;103248.38;4996612;28;45397;-53
2023/12/18 07:12:09;;;;;;;;;14.50;14.00;;;;;3.72;80.68;103243.47;4999343;28;45452;-52
2023/12/18 07:14:34;;;;;;;;;23.00;16.25;;;;;3.71;80.85;103258.41;4999481;28;45351;-55
2023/12/18 07:17:00;;;;;;;;;18.00;13.50;;;;;3.69;81.61;103254.09;4998604;28;47307;-53
2023/12/18 07:19:25;;;;;;;;;13.00;10.50;;;;;3.65;81.22;103258.56;4998877;28;45320;-56
2023/12/18 07:21:50;;;;;;;;;17.25;14.00;;;;;3.58;81.47;103258.75;4998661;28;45398;-55
2023/12/18 07:24:16;;;;;;;;;25.75;13.00;;;;;3.61;81.48;103270.06;5014382;28;45382;-53
2023/12/18 07:26:42;;;;;;;;;16.25;14.00;;;;;3.66;82.19;103268.19;4998867;28;46184;-56
2023/12/18 07:29:08;;;;;;;;;23.75;17.25;;;;;3.66;81.41;103273.44;4998672;28;45382;-54
2023/12/18 07:31:33;;;;;;;;;20.00;17.00;;;;;3.62;81.34;103266.53;4998723;28;45365;-56
2023/12/18 07:33:58;;;;;;;;;20.50;15.00;;;;;3.67;81.02;103280.47;4998785;28;45493;-56
2023/12/18 07:36:24;;;;;;;;;15.75;15.75;;;;;3.64;82.33;103279.66;4997367;28;46069;-53
2023/12/18 07:38:49;;;;;;;;;18.25;16.00;;;;;3.62;81.59;103278.81;4998478;28;45373;-54
2023/12/18 07:41:15;;;;;;;;;22.00;6.75;;;;;3.67;82.24;103288.34;4997276;28;45480;-54
2023/12/18 07:43:40;;;;;;;;;16.75;10.75;;;;;3.70;82.54;103283.00;4996369;28;45503;-56
2023/12/18 07:46:17;;;;;;;;;24.00;12.50;;;;;3.80;82.40;103291.53;4995003;28;46113;-53
2023/12/18 07:48:47;;;;;;;;;17.75;15.25;;;;;3.84;81.43;103287.06;4995481;28;46504;-55
2023/12/18 07:51:12;;;;;;;;;18.00;14.25;;;;;3.80;81.43;103280.13;4995273;28;45472;-52
2023/12/18 07:53:37;;;;;;;;;19.00;17.25;;;;;3.88;82.06;103293.97;4995806;28;45485;-53
2023/12/18 07:56:04;;;;;;;;;27.50;16.25;;;;;3.89;81.69;103285.16;4995426;28;46955;-53
2023/12/18 07:58:30;;;;;;;;;18.75;13.50;;;;;3.84;81.45;103273.88;4995639;28;45460;-55
2023/12/18 08:00:55;;;;;;;;;17.25;13.00;;;;;3.97;81.52;103296.34;4995309;28;45427;-54
2023/12/18 08:03:20;;;;;;;;;17.00;14.25;;;;;3.97;80.56;103280.53;4995378;28;45771;-49
2023/12/18 08:05:46;;;;;;;;;11.50;10.00;;;;;4.02;81.14;103294.44;4995333;28;46188;-55
2023/12/18 08:08:11;;;;;;;;;15.50;15.00;;;;;3.92;81.20;103283.31;4995470;28;45509;-55
2023/12/18 08:10:37;;;;;;;;;18.25;17.75;;;;;3.98;80.39;103282.25;4995356;28;45446;-55
2023/12/18 08:13:02;;;;;;;;;12.75;12.75;;;;;4.07;80.27;103295.19;4995255;28;45528;-50
2023/12/18 08:15:27;;;;;;;;;19.75;12.00;;;;;4.12;80.38;103289.78;4994922;28;45456;-54
2023/12/18 08:17:53;;;;;;;;;21.00;15.25;;;;;4.11;80.40;103288.91;4994505;28;45426;-54
2023/12/18 08:20:18;;;;;;;;;17.25;15.50;;;;;4.11;80.02;103291.56;4994768;28;45501;-56
2023/12/18 08:22:44;;;;;;;;;20.50;16.75;;;;;4.17;80.73;103290.50;4994795;28;45608;-55
2023/12/18 08:25:09;;;;;;;;;25.00;17.50;;;;;4.19;79.75;103292.22;4994913;28;46193;-55
2023/12/18 08:27:35;;;;;;;;;17.25;14.25;;;;;4.21;79.64;103290.41;4994737;28;45445;-55
2023/12/18 08:30:03;;;;;;;;;18.50;14.75;;;;;4.24;79.77;103295.56;4994581;28;45864;-57
2023/12/18 08:32:28;;;;;;;;;21.25;17.00;;;;;4.25;79.81;103288.53;4995050;28;45454;-56
2023/12/18 08:34:54;;;;;;;;;18.25;13.00;;;;;4.26;79.99;103282.38;4994844;28;46560;-53
2023/12/18 08:37:19;;;;;;;;;17.25;14.25;;;;;4.28;79.12;103280.53;4995128;28;45798;-55
2023/12/18 08:39:44;;;;;;;;;23.00;14.25;;;;;4.25;79.20;103284.13;4995179;28;45457;-53
2023/12/18 08:42:10;;;;;;;;;13.75;11.00;;;;;4.22;79.14;103283.38;4995527;28;45399;-56
2023/12/18 08:44:35;;;;;;;;;21.50;15.25;;;;;4.22;79.13;103278.09;4994854;28;46423;-54
2023/12/18 08:47:02;;;;;;;;;8.00;8.00;;;;;4.22;78.86;103280.72;4995264;28;45828;-54
2023/12/18 08:49:27;;;;;;;;;18.25;14.75;;;;;4.21;78.47;103273.72;4994789;28;45395;-55
2023/12/18 08:51:52;;;;;;;;;20.25;13.25;;;;;4.20;78.90;103282.53;4994870;28;45543;-53
2023/12/18 08:54:18;;;;;;;;;14.75;14.75;;;;;4.19;78.23;103280.81;4993603;28;45457;-55
2023/12/18 08:56:43;;;;;;;;;23.00;14.25;;;;;4.21;79.03;103273.72;4994807;28;45540;-51
2023/12/18 08:59:10;;;;;;;;;21.50;14.50;;;;;4.19;77.96;103275.53;4995086;28;45564;-56
2023/12/18 09:01:40;;;;;;;;;19.25;18.00;;;;;4.16;78.47;103272.97;4994906;28;46471;-54
2023/12/18 09:04:06;;;;;;;;;20.00;12.75;;;;;4.13;78.71;103273.94;4994485;28;45467;-56
2023/12/18 09:06:34;;;;;;;;;13.50;13.50;;;;;4.11;77.93;103269.63;5009669;28;45362;-56
2023/12/18 09:09:00;;;;;;;;;18.25;14.00;;;;;4.10;78.12;103267.91;4993211;28;45427;-56
2023/12/18 09:11:29;;;;;;;;;22.00;15.00;;;;;4.14;77.93;103272.19;4994997;28;45650;-56
2023/12/18 09:13:55;;;;;;;;;18.00;11.25;;;;;4.15;78.42;103263.38;4994364;28;46955;-54
2023/12/18 09:16:20;;;;;;;;;17.50;13.75;;;;;4.18;77.30;103268.56;4994486;28;45668;-56
2023/12/18 09:18:45;;;;;;;;;27.50;17.75;;;;;4.18;77.68;103263.28;4994333;28;45804;-56
2023/12/18 09:21:11;;;;;;;;;19.00;13.50;;;;;4.24;78.15;103263.94;4994570;28;45517;-55
2023/12/18 09:23:36;;;;;;;;;20.75;18.75;;;;;4.24;77.05;103268.38;4994378;28;45525;-49
2023/12/18 09:26:01;;;;;;;;;21.50;16.00;;;;;4.18;77.51;103263.28;4994025;28;45218;-54
2023/12/18 09:28:27;;;;;;;;;15.25;14.25;;;;;4.12;77.15;103253.75;4994575;28;45500;-56
2023/12/18 09:30:52;;;;;;;;;22.00;16.50;;;;;4.10;76.73;103254.72;4994160;28;46742;-55
2023/12/18 09:33:17;;;;;;;;;17.50;16.00;;;;;4.13;76.95;103259.88;4993854;28;46835;-55
2023/12/18 09:35:43;;;;;;;;;20.00;16.00;;;;;4.12;77.17;103259.03;4994062;28;45866;-56
2023/12/18 09:38:08;;;;;;;;;17.00;11.50;;;;;4.14;76.61;103261.63;4994250;28;45722;-55
2023/12/18 09:40:33;;;;;;;;;19.00;13.00;;;;;4.16;76.31;103262.44;4994538;28;45420;-53
2023/12/18 09:43:00;;;;;;;;;16.25;12.50;;;;;4.15;76.54;103260.72;4993551;28;46047;-55
2023/12/18 09:45:26;;;;;;;;;19.00;10.25;;;;;4.11;76.74;103254.69;4993830;28;46206;-53
2023/12/18 09:47:54;;;;;;;;;23.25;16.75;;;;;4.18;76.40;103258.00;5008980;28;45586;-53
2023/12/18 09:50:20;;;;;;;;;27.00;14.00;;;;;4.20;76.39;103262.31;4994317;28;46299;-54
2023/12/18 09:53:02;;;;;;;;;18.25;16.50;;;;;4.25;76.53;103275.34;4993540;28;45379;-56
2023/12/18 09:55:30;;;;;;;;;18.00;13.50;;;;;4.05;77.06;103243.47;4993742;28;45438;-56
2023/12/18 09:57:57;;;;;;;;;23.00;13.75;;;;;4.25;75.86;103281.47;4993887;28;45394;-56
2023/12/18 10:00:24;;;;;;;;;17.50;15.00;;;;;4.24;75.88;103306.09;4994014;28;45385;-55
2023/12/18 10:02:50;;;;;;;;;22.50;16.00;;;;;4.27;75.85;103291.13;4994011;28;46334;-55
2023/12/18 10:05:15;;;;;;;;;17.75;16.00;;;;;4.30;76.33;103291.03;4993081;28;45469;-56
2023/12/18 10:07:41;;;;;;;;;18.50;13.75;;;;;4.32;76.18;103291.88;4993815;28;45554;-56
2023/12/18 10:10:06;;;;;;;;;20.25;14.00;;;;;4.35;75.19;103287.38;4993920;28;45476;-54
2023/12/18 10:12:32;;;;;;;;;19.75;15.00;;;;;4.36;74.90;103282.97;4993411;28;45472;-51
2023/12/18 10:14:58;;;;;;;;;24.25;14.00;;;;;4.33;75.74;103276.00;4993963;28;45512;-50
2023/12/18 10:17:23;;;;;;;;;21.25;15.25;;;;;4.34;75.29;103282.13;4993575;28;45423;-53
2023/12/18 10:19:49;;;;;;;;;13.00;10.00;;;;;4.29;74.66;103274.34;4993409;28;45473;-51
2023/12/18 10:22:16;;;;;;;;;23.50;16.75;;;;;4.35;75.17;103278.59;4993329;28;46133;-56
2023/12/18 10:24:42;;;;;;;;;22.25;14.75;;;;;4.25;75.28;103252.50;4993680;28;45413;-55
2023/12/18 10:27:08;;;;;;;;;20.75;19.25;;;;;4.36;75.38;103262.75;4993252;28;45552;-53
2023/12/18 10:29:34;;;;;;;;;21.50;20.50;;;;;4.38;75.22;103260.03;4993650;28;45399;-55
2023/12/18 10:32:00;;;;;;;;;20.25;17.25;;;;;4.41;75.00;103262.59;4993012;28;46178;-52
2023/12/18 10:34:26;;;;;;;;;24.50;19.00;;;;;4.40;75.80;103247.72;4993069;28;45469;-56
2023/12/18 10:36:55;;;;;;;;;26.75;20.00;;;;;4.41;75.84;103255.56;4993743;28;45398;-54
2023/12/18 10:39:21;;;;;;;;;21.75;18.00;;;;;4.39;75.37;103252.13;4993764;28;45601;-55
2023/12/18 10:41:53;;;;;;;;;25.50;17.00;;;;;4.43;75.74;103253.75;4993144;28;46427;-56
2023/12/18 10:44:21;;;;;;;;;14.25;14.00;;;;;4.45;75.86;103251.91;4993735;28;45502;-54
2023/12/18 10:46:49;;;;;;;;;29.25;20.00;;;;;4.50;75.67;103260.53;4996799;28;45471;-55
2023/12/18 10:49:16;;;;;;;;;12.00;8.75;;;;;4.38;75.09;103234.59;4996809;28;46338;-55
2023/12/18 10:51:44;;;;;;;;;17.25;14.75;;;;;4.49;75.12;103250.91;4996276;28;45448;-47
2023/12/18 10:54:11;;;;;;;;;16.75;14.25;;;;;4.53;75.25;103251.69;4995033;28;45454;-56
2023/12/18 10:56:39;;;;;;;;;18.00;13.50;;;;;4.42;74.77;103232.69;4996708;28;45475;-53
2023/12/18 10:59:06;;;;;;;;;22.00;15.75;;;;;4.55;74.70;103249.91;4996755;28;45411;-54
2023/12/18 11:01:33;;;;;;;;;20.50;18.00;;;;;4.54;74.45;103260.47;4996275;28;45454;-57
2023/12/18 11:03:59;;;;;;;;;8.50;6.00;;;;;4.52;74.70;103249.97;4996292;28;45501;-57
2023/12/18 11:06:25;;;;;;;;;25.75;19.75;;;;;4.42;75.14;103233.56;4996561;28;45569;-56
2023/12/18 11:08:51;;;;;;;;;22.75;18.50;;;;;4.48;74.44;103240.44;4996863;28;45438;-57